sensor_id;sensor_type;location;lat;lon;timestamp;temperature;humidity
19972;DHT22;10147;16.402;102.848;2022-12-07T12:39:32;25.90;99.90
19972;DHT22;10147;16.402;102.848;2022-12-07T12:42:03;28.50;99.90
19972;DHT22;10147;16.402;102.848;2022-12-07T12:44:40;28.30;99.90
19972;DHT22;10147;16.402;102.848;2022-12-07T12:47:43;28.30;99.90
19972;DHT22;10147;16.402;102.848;2022-12-07T12:53:24;28.40;99.90
19972;DHT22;10147;16.402;102.848;2022-12-07T12:56:21;28.30;99.90
19972;DHT22;10147;16.402;102.848;2022-12-07T13:02:29;28.30;99.90
19972;DHT22;10147;16.402;102.848;2022-12-07T13:05:19;28.30;99.90
19972;DHT22;10147;16.402;102.848;2022-12-07T13:10:45;28.20;99.90
19972;DHT22;10147;16.402;102.848;2022-12-07T13:13:31;27.80;99.90
19972;DHT22;10147;16.402;102.848;2022-12-07T13:22:39;27.60;99.90
19972;DHT22;10147;16.402;102.848;2022-12-07T13:25:29;27.50;99.90
19972;DHT22;10147;16.402;102.848;2022-12-07T13:28:20;27.50;99.90
19972;DHT22;10147;16.402;102.848;2022-12-07T13:33:50;27.50;99.90
19972;DHT22;10147;16.402;102.848;2022-12-07T13:36:26;27.40;99.90
19972;DHT22;10147;16.402;102.848;2022-12-07T13:41:59;27.30;99.90
19972;DHT22;10147;16.402;102.848;2022-12-07T13:44:40;27.30;99.90
19972;DHT22;10147;16.402;102.848;2022-12-07T13:50:27;27.10;99.90
19972;DHT22;10147;16.402;102.848;2022-12-07T13:52:59;27.10;99.90
19972;DHT22;10147;16.402;102.848;2022-12-07T13:55:30;27.00;99.90
19972;DHT22;10147;16.402;102.848;2022-12-07T13:58:01;27.00;99.90
19972;DHT22;10147;16.402;102.848;2022-12-07T14:00:31;27.00;99.90
19972;DHT22;10147;16.402;102.848;2022-12-07T14:03:23;27.00;99.90
19972;DHT22;10147;16.402;102.848;2022-12-07T14:09:17;27.00;99.90
19972;DHT22;10147;16.402;102.848;2022-12-07T14:11:50;27.00;99.90
19972;DHT22;10147;16.402;102.848;2022-12-07T14:14:26;27.00;99.90
19972;DHT22;10147;16.402;102.848;2022-12-07T14:17:18;26.90;99.90
19972;DHT22;10147;16.402;102.848;2022-12-07T14:19:58;26.90;99.90
19972;DHT22;10147;16.402;102.848;2022-12-07T14:22:35;26.80;99.90
19972;DHT22;10147;16.402;102.848;2022-12-07T14:25:25;26.80;99.90
19972;DHT22;10147;16.402;102.848;2022-12-07T14:27:59;26.80;99.90
19972;DHT22;10147;16.402;102.848;2022-12-07T14:30:32;26.50;99.90
19972;DHT22;10147;16.402;102.848;2022-12-07T14:33:05;26.60;99.90
19972;DHT22;10147;16.402;102.848;2022-12-07T14:35:40;26.50;99.90
19972;DHT22;10147;16.402;102.848;2022-12-07T14:38:10;26.60;99.90
19972;DHT22;10147;16.402;102.848;2022-12-07T14:40:41;26.60;99.90
19972;DHT22;10147;16.402;102.848;2022-12-07T14:43:13;26.70;99.90
19972;DHT22;10147;16.402;102.848;2022-12-07T14:45:45;26.60;99.90
19972;DHT22;10147;16.402;102.848;2022-12-07T14:48:16;26.60;99.90
19972;DHT22;10147;16.402;102.848;2022-12-07T14:51:09;26.40;99.90
19972;DHT22;10147;16.402;102.848;2022-12-07T14:54:02;26.30;99.90
19972;DHT22;10147;16.402;102.848;2022-12-07T14:56:34;26.30;99.90
19972;DHT22;10147;16.402;102.848;2022-12-07T14:59:05;26.20;99.90
19972;DHT22;10147;16.402;102.848;2022-12-07T15:01:36;26.30;99.90
19972;DHT22;10147;16.402;102.848;2022-12-07T15:04:07;26.20;99.90
19972;DHT22;10147;16.402;102.848;2022-12-07T15:06:38;26.20;99.90
19972;DHT22;10147;16.402;102.848;2022-12-07T15:09:10;26.10;99.90
19972;DHT22;10147;16.402;102.848;2022-12-07T15:11:41;26.10;99.90
19972;DHT22;10147;16.402;102.848;2022-12-07T15:14:11;26.20;99.90
19972;DHT22;10147;16.402;102.848;2022-12-07T15:16:43;26.10;99.90
19972;DHT22;10147;16.402;102.848;2022-12-07T15:19:34;26.10;99.90
19972;DHT22;10147;16.402;102.848;2022-12-07T15:22:05;26.10;99.90
19972;DHT22;10147;16.402;102.848;2022-12-07T15:24:36;26.20;99.90
19972;DHT22;10147;16.402;102.848;2022-12-07T15:27:07;26.20;99.90
19972;DHT22;10147;16.402;102.848;2022-12-07T15:29:37;26.30;99.90
19972;DHT22;10147;16.402;102.848;2022-12-07T15:32:07;26.20;99.90
19972;DHT22;10147;16.402;102.848;2022-12-07T15:34:38;26.20;99.90
19972;DHT22;10147;16.402;102.848;2022-12-07T15:37:09;26.10;99.90
19972;DHT22;10147;16.402;102.848;2022-12-07T15:39:39;25.90;99.90
19972;DHT22;10147;16.402;102.848;2022-12-07T15:42:09;25.80;99.90
19972;DHT22;10147;16.402;102.848;2022-12-07T15:44:39;25.90;99.90
19972;DHT22;10147;16.402;102.848;2022-12-07T15:47:34;25.90;99.90
19972;DHT22;10147;16.402;102.848;2022-12-07T15:50:25;25.80;99.90
19972;DHT22;10147;16.402;102.848;2022-12-07T15:52:56;25.60;99.90
19972;DHT22;10147;16.402;102.848;2022-12-07T15:55:26;25.70;99.90
19972;DHT22;10147;16.402;102.848;2022-12-07T15:57:56;25.70;99.90
19972;DHT22;10147;16.402;102.848;2022-12-07T16:00:26;25.70;99.90
19972;DHT22;10147;16.402;102.848;2022-12-07T16:02:56;25.80;99.90
19972;DHT22;10147;16.402;102.848;2022-12-07T16:05:26;25.70;99.90
19972;DHT22;10147;16.402;102.848;2022-12-07T16:07:57;25.60;99.90
19972;DHT22;10147;16.402;102.848;2022-12-07T16:10:27;25.70;99.90
19972;DHT22;10147;16.402;102.848;2022-12-07T16:12:58;25.80;99.90
19972;DHT22;10147;16.402;102.848;2022-12-07T16:15:28;25.70;99.90
19972;DHT22;10147;16.402;102.848;2022-12-07T16:17:59;25.70;99.90
19972;DHT22;10147;16.402;102.848;2022-12-07T16:20:30;25.70;99.90
19972;DHT22;10147;16.402;102.848;2022-12-07T16:23:00;25.70;99.90
19972;DHT22;10147;16.402;102.848;2022-12-07T16:25:30;25.70;99.90
19972;DHT22;10147;16.402;102.848;2022-12-07T16:28:01;25.50;99.90
19972;DHT22;10147;16.402;102.848;2022-12-07T16:30:32;25.40;99.90
19972;DHT22;10147;16.402;102.848;2022-12-07T16:33:03;25.40;99.90
19972;DHT22;10147;16.402;102.848;2022-12-07T16:35:33;25.50;99.90
19972;DHT22;10147;16.402;102.848;2022-12-07T16:38:04;25.40;99.90
19972;DHT22;10147;16.402;102.848;2022-12-07T16:40:34;25.30;99.90
19972;DHT22;10147;16.402;102.848;2022-12-07T16:43:05;25.30;99.90
19972;DHT22;10147;16.402;102.848;2022-12-07T16:45:37;25.30;99.90
19972;DHT22;10147;16.402;102.848;2022-12-07T16:48:08;25.20;99.90
19972;DHT22;10147;16.402;102.848;2022-12-07T16:50:43;25.10;99.90
19972;DHT22;10147;16.402;102.848;2022-12-07T16:53:19;25.10;99.90
19972;DHT22;10147;16.402;102.848;2022-12-07T16:55:51;24.90;99.90
19972;DHT22;10147;16.402;102.848;2022-12-07T16:58:22;24.90;99.90
19972;DHT22;10147;16.402;102.848;2022-12-07T17:00:53;25.00;99.90
19972;DHT22;10147;16.402;102.848;2022-12-07T17:03:24;24.90;99.90
19972;DHT22;10147;16.402;102.848;2022-12-07T17:05:55;25.00;99.90
19972;DHT22;10147;16.402;102.848;2022-12-07T17:08:25;24.80;99.90
19972;DHT22;10147;16.402;102.848;2022-12-07T17:10:55;24.70;99.90
19972;DHT22;10147;16.402;102.848;2022-12-07T17:13:25;24.70;99.90
19972;DHT22;10147;16.402;102.848;2022-12-07T17:16:16;24.70;99.90
19972;DHT22;10147;16.402;102.848;2022-12-07T17:18:46;24.70;99.90
19972;DHT22;10147;16.402;102.848;2022-12-07T17:21:16;24.80;99.90
19972;DHT22;10147;16.402;102.848;2022-12-07T17:23:47;24.70;99.90
19972;DHT22;10147;16.402;102.848;2022-12-07T17:26:22;24.70;99.90
19972;DHT22;10147;16.402;102.848;2022-12-07T17:28:59;24.60;99.90
19972;DHT22;10147;16.402;102.848;2022-12-07T17:31:30;24.80;99.90
19972;DHT22;10147;16.402;102.848;2022-12-07T17:34:01;24.90;99.90
19972;DHT22;10147;16.402;102.848;2022-12-07T17:36:32;24.80;99.90
19972;DHT22;10147;16.402;102.848;2022-12-07T17:39:07;24.80;99.90
19972;DHT22;10147;16.402;102.848;2022-12-07T17:41:39;24.70;99.90
19972;DHT22;10147;16.402;102.848;2022-12-07T17:44:29;24.60;99.90
19972;DHT22;10147;16.402;102.848;2022-12-07T17:47:00;24.60;99.90
19972;DHT22;10147;16.402;102.848;2022-12-07T17:49:32;24.70;99.90
19972;DHT22;10147;16.402;102.848;2022-12-07T17:52:02;24.70;99.90
19972;DHT22;10147;16.402;102.848;2022-12-07T17:54:52;24.60;99.90
19972;DHT22;10147;16.402;102.848;2022-12-07T17:57:23;24.60;99.90
19972;DHT22;10147;16.402;102.848;2022-12-07T17:59:53;24.60;99.90
19972;DHT22;10147;16.402;102.848;2022-12-07T18:02:24;24.60;99.90
19972;DHT22;10147;16.402;102.848;2022-12-07T18:04:54;24.60;99.90
19972;DHT22;10147;16.402;102.848;2022-12-07T18:07:25;24.60;99.90
19972;DHT22;10147;16.402;102.848;2022-12-07T18:09:56;24.50;99.90
19972;DHT22;10147;16.402;102.848;2022-12-07T18:12:26;24.30;99.90
19972;DHT22;10147;16.402;102.848;2022-12-07T18:14:56;24.10;99.90
19972;DHT22;10147;16.402;102.848;2022-12-07T18:17:27;24.00;99.90
19972;DHT22;10147;16.402;102.848;2022-12-07T18:19:57;23.90;99.90
19972;DHT22;10147;16.402;102.848;2022-12-07T18:22:29;23.70;99.90
19972;DHT22;10147;16.402;102.848;2022-12-07T18:24:59;23.80;99.90
19972;DHT22;10147;16.402;102.848;2022-12-07T18:27:30;23.70;99.90
19972;DHT22;10147;16.402;102.848;2022-12-07T18:30:00;23.60;99.90
19972;DHT22;10147;16.402;102.848;2022-12-07T18:32:31;23.50;99.90
19972;DHT22;10147;16.402;102.848;2022-12-07T18:35:01;23.40;99.90
19972;DHT22;10147;16.402;102.848;2022-12-07T18:37:32;23.50;99.90
19972;DHT22;10147;16.402;102.848;2022-12-07T18:40:03;23.70;99.90
19972;DHT22;10147;16.402;102.848;2022-12-07T18:42:34;23.50;99.90
19972;DHT22;10147;16.402;102.848;2022-12-07T18:45:05;23.40;99.90
19972;DHT22;10147;16.402;102.848;2022-12-07T18:47:36;23.30;99.90
19972;DHT22;10147;16.402;102.848;2022-12-07T18:50:08;23.50;99.90
19972;DHT22;10147;16.402;102.848;2022-12-07T18:52:38;23.50;99.90
19972;DHT22;10147;16.402;102.848;2022-12-07T18:55:09;23.40;99.90
19972;DHT22;10147;16.402;102.848;2022-12-07T18:57:39;23.70;99.90
19972;DHT22;10147;16.402;102.848;2022-12-07T19:00:11;23.60;99.90
19972;DHT22;10147;16.402;102.848;2022-12-07T19:02:42;23.90;99.90
19972;DHT22;10147;16.402;102.848;2022-12-07T19:05:12;23.90;99.90
19972;DHT22;10147;16.402;102.848;2022-12-07T19:07:43;24.00;99.90
19972;DHT22;10147;16.402;102.848;2022-12-07T19:10:14;24.00;99.90
19972;DHT22;10147;16.402;102.848;2022-12-07T19:12:46;24.00;99.90
19972;DHT22;10147;16.402;102.848;2022-12-07T19:15:17;24.00;99.90
19972;DHT22;10147;16.402;102.848;2022-12-07T19:17:47;24.00;99.90
19972;DHT22;10147;16.402;102.848;2022-12-07T19:20:18;24.10;99.90
19972;DHT22;10147;16.402;102.848;2022-12-07T19:22:49;23.80;99.90
19972;DHT22;10147;16.402;102.848;2022-12-07T19:25:20;23.90;99.90
19972;DHT22;10147;16.402;102.848;2022-12-07T19:27:50;23.90;99.90
19972;DHT22;10147;16.402;102.848;2022-12-07T19:30:21;23.90;99.90
19972;DHT22;10147;16.402;102.848;2022-12-07T19:32:51;23.80;99.90
19972;DHT22;10147;16.402;102.848;2022-12-07T19:35:22;23.50;99.90
19972;DHT22;10147;16.402;102.848;2022-12-07T19:37:52;23.40;99.90
19972;DHT22;10147;16.402;102.848;2022-12-07T19:40:24;23.30;99.90
19972;DHT22;10147;16.402;102.848;2022-12-07T19:42:54;23.00;99.90
19972;DHT22;10147;16.402;102.848;2022-12-07T19:45:25;23.00;99.90
19972;DHT22;10147;16.402;102.848;2022-12-07T19:47:58;23.00;99.90
19972;DHT22;10147;16.402;102.848;2022-12-07T19:50:29;23.10;99.90
19972;DHT22;10147;16.402;102.848;2022-12-07T19:52:59;23.00;99.90
19972;DHT22;10147;16.402;102.848;2022-12-07T19:55:30;23.20;99.90
19972;DHT22;10147;16.402;102.848;2022-12-07T19:58:00;23.10;99.90
19972;DHT22;10147;16.402;102.848;2022-12-07T20:00:30;23.30;99.90
19972;DHT22;10147;16.402;102.848;2022-12-07T20:03:01;23.40;99.90
19972;DHT22;10147;16.402;102.848;2022-12-07T20:05:33;23.40;99.90
19972;DHT22;10147;16.402;102.848;2022-12-07T20:08:03;23.30;99.90
19972;DHT22;10147;16.402;102.848;2022-12-07T20:10:38;23.20;99.90
19972;DHT22;10147;16.402;102.848;2022-12-07T20:13:09;23.10;99.90
19972;DHT22;10147;16.402;102.848;2022-12-07T20:16:02;23.40;99.90
19972;DHT22;10147;16.402;102.848;2022-12-07T20:18:47;23.40;99.90
19972;DHT22;10147;16.402;102.848;2022-12-07T20:21:25;23.40;99.90
19972;DHT22;10147;16.402;102.848;2022-12-07T20:23:55;23.40;99.90
19972;DHT22;10147;16.402;102.848;2022-12-07T20:26:26;23.40;99.90
19972;DHT22;10147;16.402;102.848;2022-12-07T20:28:57;23.50;99.90
19972;DHT22;10147;16.402;102.848;2022-12-07T20:31:36;23.50;99.90
19972;DHT22;10147;16.402;102.848;2022-12-07T20:34:06;23.60;99.90
19972;DHT22;10147;16.402;102.848;2022-12-07T20:36:37;23.50;99.90
19972;DHT22;10147;16.402;102.848;2022-12-07T20:39:07;23.30;99.90
19972;DHT22;10147;16.402;102.848;2022-12-07T20:41:39;23.20;99.90
19972;DHT22;10147;16.402;102.848;2022-12-07T20:44:29;22.80;99.90
19972;DHT22;10147;16.402;102.848;2022-12-07T20:46:59;22.60;99.90
19972;DHT22;10147;16.402;102.848;2022-12-07T20:49:30;22.50;99.90
19972;DHT22;10147;16.402;102.848;2022-12-07T20:52:01;22.60;99.90
19972;DHT22;10147;16.402;102.848;2022-12-07T20:54:32;22.70;99.90
19972;DHT22;10147;16.402;102.848;2022-12-07T20:57:02;22.60;99.90
19972;DHT22;10147;16.402;102.848;2022-12-07T20:59:33;22.60;99.90
19972;DHT22;10147;16.402;102.848;2022-12-07T21:02:11;22.60;99.90
19972;DHT22;10147;16.402;102.848;2022-12-07T21:04:42;22.80;99.90
19972;DHT22;10147;16.402;102.848;2022-12-07T21:07:11;22.70;99.90
19972;DHT22;10147;16.402;102.848;2022-12-07T21:09:41;22.80;99.90
19972;DHT22;10147;16.402;102.848;2022-12-07T21:12:14;22.90;99.90
19972;DHT22;10147;16.402;102.848;2022-12-07T21:14:44;23.10;99.90
19972;DHT22;10147;16.402;102.848;2022-12-07T21:17:15;23.10;99.90
19972;DHT22;10147;16.402;102.848;2022-12-07T21:19:45;23.10;99.90
19972;DHT22;10147;16.402;102.848;2022-12-07T21:22:16;23.10;99.90
19972;DHT22;10147;16.402;102.848;2022-12-07T21:24:47;23.20;99.90
19972;DHT22;10147;16.402;102.848;2022-12-07T21:27:18;23.00;99.90
19972;DHT22;10147;16.402;102.848;2022-12-07T21:29:48;23.00;99.90
19972;DHT22;10147;16.402;102.848;2022-12-07T21:32:21;22.90;99.90
19972;DHT22;10147;16.402;102.848;2022-12-07T21:34:51;22.90;99.90
19972;DHT22;10147;16.402;102.848;2022-12-07T21:37:22;23.00;99.90
19972;DHT22;10147;16.402;102.848;2022-12-07T21:39:52;23.00;99.90
19972;DHT22;10147;16.402;102.848;2022-12-07T21:42:23;22.90;99.90
19972;DHT22;10147;16.402;102.848;2022-12-07T21:44:53;22.90;99.90
19972;DHT22;10147;16.402;102.848;2022-12-07T21:47:23;22.80;99.90
19972;DHT22;10147;16.402;102.848;2022-12-07T21:49:54;22.70;99.90
19972;DHT22;10147;16.402;102.848;2022-12-07T21:52:24;22.50;99.90
19972;DHT22;10147;16.402;102.848;2022-12-07T21:54:55;22.30;99.90
19972;DHT22;10147;16.402;102.848;2022-12-07T21:57:25;22.20;99.90
19972;DHT22;10147;16.402;102.848;2022-12-07T21:59:56;22.20;99.90
19972;DHT22;10147;16.402;102.848;2022-12-07T22:02:26;22.20;99.90
19972;DHT22;10147;16.402;102.848;2022-12-07T22:04:56;22.20;99.90
19972;DHT22;10147;16.402;102.848;2022-12-07T22:07:27;22.20;99.90
19972;DHT22;10147;16.402;102.848;2022-12-07T22:09:58;22.30;99.90
19972;DHT22;10147;16.402;102.848;2022-12-07T22:12:28;22.50;99.90
19972;DHT22;10147;16.402;102.848;2022-12-07T22:15:00;22.60;99.90
19972;DHT22;10147;16.402;102.848;2022-12-07T22:17:38;22.60;99.90
19972;DHT22;10147;16.402;102.848;2022-12-07T22:20:09;22.40;99.90
19972;DHT22;10147;16.402;102.848;2022-12-07T22:22:39;22.30;99.90
19972;DHT22;10147;16.402;102.848;2022-12-07T22:25:10;22.30;99.90
19972;DHT22;10147;16.402;102.848;2022-12-07T22:27:42;22.30;99.90
19972;DHT22;10147;16.402;102.848;2022-12-07T22:30:12;22.40;99.90
19972;DHT22;10147;16.402;102.848;2022-12-07T22:32:42;22.60;99.90
19972;DHT22;10147;16.402;102.848;2022-12-07T22:35:17;22.70;99.90
19972;DHT22;10147;16.402;102.848;2022-12-07T22:37:47;22.60;99.90
19972;DHT22;10147;16.402;102.848;2022-12-07T22:40:18;22.40;99.90
19972;DHT22;10147;16.402;102.848;2022-12-07T22:42:49;22.40;99.90
19972;DHT22;10147;16.402;102.848;2022-12-07T22:45:19;22.50;99.90
19972;DHT22;10147;16.402;102.848;2022-12-07T22:47:50;22.50;99.90
19972;DHT22;10147;16.402;102.848;2022-12-07T22:50:20;22.50;99.90
19972;DHT22;10147;16.402;102.848;2022-12-07T22:52:52;22.50;99.90
19972;DHT22;10147;16.402;102.848;2022-12-07T22:55:23;22.60;99.90
19972;DHT22;10147;16.402;102.848;2022-12-07T22:57:54;22.50;99.90
19972;DHT22;10147;16.402;102.848;2022-12-07T23:00:24;22.30;99.90
19972;DHT22;10147;16.402;102.848;2022-12-07T23:02:54;22.20;99.90
19972;DHT22;10147;16.402;102.848;2022-12-07T23:05:25;22.20;99.90
19972;DHT22;10147;16.402;102.848;2022-12-07T23:07:56;22.20;99.90
19972;DHT22;10147;16.402;102.848;2022-12-07T23:10:26;22.20;99.90
19972;DHT22;10147;16.402;102.848;2022-12-07T23:12:56;22.40;99.90
19972;DHT22;10147;16.402;102.848;2022-12-07T23:15:46;22.40;99.90
19972;DHT22;10147;16.402;102.848;2022-12-07T23:18:17;22.40;99.90
19972;DHT22;10147;16.402;102.848;2022-12-07T23:20:47;22.20;99.90
19972;DHT22;10147;16.402;102.848;2022-12-07T23:23:18;22.20;99.90
19972;DHT22;10147;16.402;102.848;2022-12-07T23:25:49;22.20;99.90
19972;DHT22;10147;16.402;102.848;2022-12-07T23:28:19;22.10;99.90
19972;DHT22;10147;16.402;102.848;2022-12-07T23:30:50;22.10;99.90
19972;DHT22;10147;16.402;102.848;2022-12-07T23:33:20;22.20;99.90
19972;DHT22;10147;16.402;102.848;2022-12-07T23:35:53;22.10;99.90
19972;DHT22;10147;16.402;102.848;2022-12-07T23:38:23;22.10;99.90
19972;DHT22;10147;16.402;102.848;2022-12-07T23:40:54;22.30;99.90
19972;DHT22;10147;16.402;102.848;2022-12-07T23:43:24;22.30;99.90
19972;DHT22;10147;16.402;102.848;2022-12-07T23:45:55;22.20;99.90
19972;DHT22;10147;16.402;102.848;2022-12-07T23:48:26;22.30;99.90
19972;DHT22;10147;16.402;102.848;2022-12-07T23:50:58;22.20;99.90
19972;DHT22;10147;16.402;102.848;2022-12-07T23:53:31;22.30;99.90
19972;DHT22;10147;16.402;102.848;2022-12-07T23:56:01;22.30;99.90
19972;DHT22;10147;16.402;102.848;2022-12-07T23:58:31;22.40;99.90
